Terminal Aerodrome Forecast
Issued by NWS Northern Indiana

Home | Current Version | Previous Version | Graphics & Text | Print | Product List | Glossary On
Versions: 1 2 3 4 5 6 7 8 9 10 11 12 13 14 15 16 17
000
FTUS43 KIWX 011700
TAFFWA
TAF
KFWA 011740Z 0118/0218 11005KT 1SM -SN BR OVC025
     FM012200 26007KT P6SM OVC020
     FM020500 26008KT P6SM SCT020
     FM020900 28008KT P6SM SCT250=

USA.gov is the U.S. government's official web portal to all federal, state and local government web resources and services.